createdAt,value
2023-03-03T00:00:05.709Z,100.00
2023-03-03T00:05:07.471Z,100.00
2023-03-03T00:10:09.484Z,100.00
2023-03-03T00:15:22.784Z,100.00
2023-03-03T00:20:35.493Z,100.00
2023-03-03T00:25:37.183Z,100.00
2023-03-03T00:30:38.657Z,100.00
2023-03-03T00:35:41.495Z,100.00
2023-03-03T00:40:43.178Z,100.00
2023-03-03T00:45:55.754Z,100.00
2023-03-03T00:51:02.008Z,100.00
2023-03-03T00:56:03.559Z,100.00
2023-03-03T01:01:05.242Z,100.00
2023-03-03T01:06:07.408Z,100.00
2023-03-03T01:11:13.828Z,100.00
2023-03-03T01:16:15.506Z,100.00
2023-03-03T01:21:17.095Z,100.00
2023-03-03T01:26:18.605Z,100.00
2023-03-03T01:31:20.390Z,100.00
2023-03-03T01:36:26.809Z,100.00
2023-03-03T01:41:30.194Z,100.00
2023-03-03T01:46:56.575Z,100.00
2023-03-03T01:52:11.908Z,100.00
2023-03-03T01:57:28.678Z,100.00
2023-03-03T02:02:31.441Z,100.00
2023-03-03T02:07:33.530Z,100.00
2023-03-03T02:12:48.351Z,100.00
2023-03-03T02:17:54.438Z,100.00
2023-03-03T02:23:07.723Z,100.00
2023-03-03T02:28:09.413Z,100.00
2023-03-03T02:33:10.891Z,100.00
2023-03-03T02:38:15.002Z,100.00
2023-03-03T02:43:19.672Z,100.00
2023-03-03T02:48:21.128Z,100.00
2023-03-03T02:53:22.670Z,100.00
2023-03-03T02:58:24.271Z,100.00
2023-03-03T03:03:25.739Z,100.00
2023-03-03T03:08:27.211Z,100.00
2023-03-03T03:13:28.780Z,100.00
2023-03-03T03:18:30.307Z,100.00
2023-03-03T03:23:32.011Z,100.00
2023-03-03T03:28:34.057Z,100.00
2023-03-03T03:33:36.278Z,100.00
2023-03-03T03:38:39.196Z,100.00
2023-03-03T03:43:40.970Z,100.00
2023-03-03T03:48:42.462Z,100.00
2023-03-03T03:53:43.972Z,100.00
2023-03-03T03:58:45.479Z,100.00
2023-03-03T04:03:47.182Z,100.00
2023-03-03T04:08:48.720Z,100.00
2023-03-03T04:13:50.306Z,100.00
2023-03-03T04:18:51.828Z,100.00
2023-03-03T04:23:53.730Z,100.00
2023-03-03T04:28:55.251Z,100.00
2023-03-03T04:33:56.810Z,100.00
2023-03-03T04:38:58.355Z,100.00
2023-03-03T04:43:59.902Z,100.00
2023-03-03T04:49:01.528Z,100.00
2023-03-03T04:54:03.093Z,100.00
2023-03-03T04:59:04.598Z,100.00
2023-03-03T05:04:06.271Z,100.00
2023-03-03T05:09:07.892Z,100.00
2023-03-03T05:14:09.453Z,100.00
2023-03-03T05:19:10.943Z,100.00
2023-03-03T05:24:13.932Z,100.00
2023-03-03T05:29:15.434Z,100.00
2023-03-03T05:34:16.977Z,100.00
2023-03-03T05:39:18.715Z,100.00
2023-03-03T05:44:20.819Z,100.00
2023-03-03T05:49:22.428Z,100.00
2023-03-03T05:54:23.991Z,100.00
2023-03-03T05:59:25.534Z,100.00
2023-03-03T06:04:27.044Z,100.00
2023-03-03T06:09:28.630Z,100.00
2023-03-03T06:14:30.275Z,100.00
2023-03-03T06:19:32.122Z,100.00
2023-03-03T06:24:34.041Z,100.00
2023-03-03T06:29:35.550Z,100.00
2023-03-03T06:34:37.135Z,100.00
2023-03-03T06:39:38.789Z,100.00
2023-03-03T06:44:40.305Z,100.00
2023-03-03T06:49:41.864Z,100.00
2023-03-03T06:54:43.402Z,100.00
2023-03-03T06:59:47.422Z,100.00
2023-03-03T07:04:49.309Z,100.00
2023-03-03T07:09:53.678Z,100.00
2023-03-03T07:15:10.420Z,100.00
2023-03-03T07:20:19.644Z,100.00
2023-03-03T07:25:30.808Z,100.00
2023-03-03T07:30:32.935Z,100.00
2023-03-03T07:35:41.083Z,100.00
2023-03-03T07:40:47.626Z,100.00
2023-03-03T07:45:49.315Z,100.00
2023-03-03T07:50:51.581Z,100.00
2023-03-03T07:55:53.440Z,100.00
2023-03-03T08:01:39.966Z,100.00
2023-03-03T08:06:46.751Z,100.00
2023-03-03T08:12:09.349Z,100.00
2023-03-03T08:17:36.987Z,100.00
2023-03-03T08:22:38.634Z,100.00
2023-03-03T08:27:40.118Z,100.00
2023-03-03T08:32:41.737Z,100.00
2023-03-03T08:37:43.336Z,100.00
2023-03-03T08:42:44.950Z,100.00
2023-03-03T08:47:46.806Z,100.00
2023-03-03T08:52:48.336Z,100.00
2023-03-03T08:57:49.888Z,100.00
2023-03-03T09:02:51.669Z,100.00
2023-03-03T09:07:53.637Z,100.00
2023-03-03T09:12:58.946Z,100.00
2023-03-03T09:18:23.695Z,100.00
2023-03-03T09:23:33.957Z,100.00
2023-03-03T09:28:36.158Z,100.00
2023-03-03T09:33:43.958Z,100.00
2023-03-03T09:38:45.974Z,100.00
2023-03-03T09:43:59.238Z,100.00
2023-03-03T09:49:35.105Z,100.00
2023-03-03T09:54:50.462Z,98.38
2023-03-03T10:00:06.456Z,96.38
2023-03-03T10:05:41.671Z,97.25
2023-03-03T10:11:01.570Z,94.81
2023-03-03T10:16:12.177Z,94.70
2023-03-03T10:21:59.331Z,91.28
2023-03-03T10:27:30.375Z,91.11
2023-03-03T10:33:01.091Z,90.27
2023-03-03T10:38:18.692Z,90.99
2023-03-03T10:43:31.733Z,89.57
2023-03-03T10:49:02.295Z,88.26
2023-03-03T10:54:21.058Z,87.34
2023-03-03T10:59:50.367Z,85.28
2023-03-03T11:05:10.582Z,84.60
2023-03-03T11:10:33.937Z,83.91
2023-03-03T11:15:47.625Z,83.63
2023-03-03T11:21:23.126Z,82.94
2023-03-03T11:26:24.786Z,83.63
2023-03-03T11:31:37.156Z,83.23
2023-03-03T11:36:46.042Z,83.14
2023-03-03T11:48:11.617Z,84.80
2023-03-03T11:53:29.459Z,84.64
2023-03-03T11:58:40.168Z,83.38
2023-03-03T12:03:48.922Z,83.29
2023-03-03T12:09:18.633Z,82.91
2023-03-03T12:14:38.893Z,83.18
2023-03-03T12:19:55.322Z,83.70
2023-03-03T12:25:16.230Z,84.07
2023-03-03T12:30:52.747Z,84.12
2023-03-03T12:36:12.225Z,84.71
2023-03-03T12:41:34.979Z,85.17
2023-03-03T12:46:59.643Z,85.04
2023-03-03T12:52:31.509Z,84.32
2023-03-03T12:57:48.710Z,83.76
2023-03-03T13:02:58.771Z,84.38
2023-03-03T13:08:09.163Z,84.74
2023-03-03T13:13:22.731Z,84.20
2023-03-03T13:18:48.671Z,83.33
2023-03-03T13:23:53.045Z,82.26
2023-03-03T13:29:04.600Z,82.89
2023-03-03T13:34:23.649Z,83.26
2023-03-03T13:39:42.875Z,83.38
2023-03-03T13:44:46.998Z,82.71
2023-03-03T13:50:04.213Z,83.19
2023-03-03T13:55:05.641Z,83.07
2023-03-03T14:00:21.336Z,82.69
2023-03-03T14:05:28.585Z,82.13
2023-03-03T14:10:59.933Z,82.73
2023-03-03T14:16:16.965Z,82.97
2023-03-03T14:21:27.304Z,82.62
2023-03-03T14:26:28.837Z,83.20
2023-03-03T14:31:39.675Z,83.27
2023-03-03T14:36:43.499Z,83.59
2023-03-03T14:41:44.999Z,85.42
2023-03-03T14:46:46.535Z,87.61
2023-03-03T14:51:50.173Z,88.29
2023-03-03T14:57:10.732Z,88.94
2023-03-03T15:02:18.471Z,89.06
2023-03-03T15:07:33.281Z,89.14
2023-03-03T15:12:37.175Z,89.25
2023-03-03T15:17:44.469Z,88.70
2023-03-03T15:22:48.574Z,89.06
2023-03-03T15:27:53.374Z,89.21
2023-03-03T15:33:14.247Z,88.30
2023-03-03T15:38:26.729Z,89.92
2023-03-03T15:43:46.024Z,91.31
2023-03-03T15:49:12.202Z,92.55
2023-03-03T15:54:26.346Z,93.16
2023-03-03T15:59:58.501Z,93.79
2023-03-03T16:05:08.277Z,95.94
2023-03-03T16:10:47.199Z,97.83
2023-03-03T16:16:00.685Z,98.69
2023-03-03T16:21:27.097Z,98.78
2023-03-03T16:27:05.999Z,99.20
2023-03-03T16:32:10.520Z,97.63
2023-03-03T16:37:23.188Z,97.68
2023-03-03T16:42:33.056Z,98.34
2023-03-03T16:47:41.955Z,98.88
2023-03-03T16:52:48.127Z,99.70
2023-03-03T16:58:01.501Z,100.00
2023-03-03T17:03:19.569Z,99.85
2023-03-03T17:08:26.864Z,99.91
2023-03-03T17:13:28.317Z,99.81
2023-03-03T17:18:44.671Z,100.00
2023-03-03T17:24:14.066Z,99.61
2023-03-03T17:29:57.207Z,99.59
2023-03-03T17:35:20.260Z,99.00
2023-03-03T17:40:37.574Z,99.56
2023-03-03T17:45:43.175Z,100.00
2023-03-03T17:50:59.980Z,100.00
2023-03-03T17:56:20.092Z,100.00
2023-03-03T18:01:39.807Z,100.00
2023-03-03T18:07:05.846Z,100.00
2023-03-03T18:12:07.274Z,100.00
2023-03-03T18:17:42.714Z,100.00
2023-03-03T18:22:55.020Z,100.00
2023-03-03T18:27:59.524Z,100.00
2023-03-03T18:33:10.158Z,100.00
2023-03-03T18:38:17.620Z,100.00
2023-03-03T18:43:43.926Z,100.00
2023-03-03T18:49:06.704Z,100.00
2023-03-03T18:54:17.363Z,100.00
2023-03-03T18:59:34.172Z,100.00
2023-03-03T19:04:37.529Z,100.00
2023-03-03T19:09:56.969Z,100.00
2023-03-03T19:14:58.694Z,100.00
2023-03-03T19:20:18.048Z,100.00
2023-03-03T19:25:28.118Z,100.00
2023-03-03T19:30:56.089Z,100.00
2023-03-03T19:36:25.159Z,100.00
2023-03-03T19:41:52.835Z,100.00
2023-03-03T19:46:55.932Z,100.00
2023-03-03T19:52:22.563Z,100.00
2023-03-03T19:57:35.101Z,100.00
2023-03-03T20:02:42.277Z,100.00
2023-03-03T20:07:59.439Z,100.00
2023-03-03T20:13:30.506Z,100.00
2023-03-03T20:19:00.785Z,100.00
2023-03-03T20:24:16.624Z,100.00
2023-03-03T20:29:50.173Z,100.00
2023-03-03T20:35:16.469Z,100.00
2023-03-03T20:40:38.175Z,100.00
2023-03-03T20:46:02.890Z,100.00
2023-03-03T20:51:29.975Z,100.00
2023-03-03T20:56:43.916Z,100.00
2023-03-03T21:02:16.086Z,100.00
2023-03-03T21:07:26.643Z,100.00
2023-03-03T21:12:30.716Z,100.00
2023-03-03T21:17:32.353Z,100.00
2023-03-03T21:22:33.867Z,100.00
2023-03-03T21:27:37.103Z,100.00
2023-03-03T21:32:42.917Z,100.00
2023-03-03T21:37:48.749Z,100.00
2023-03-03T21:42:52.036Z,100.00
2023-03-03T21:47:55.042Z,100.00
2023-03-03T21:52:56.575Z,100.00
2023-03-03T21:57:58.116Z,100.00
2023-03-03T22:02:59.939Z,100.00
2023-03-03T22:08:01.490Z,100.00
2023-03-03T22:13:03.018Z,100.00
2023-03-03T22:18:04.595Z,100.00
2023-03-03T22:23:06.057Z,100.00
2023-03-03T22:28:07.667Z,100.00
2023-03-03T22:33:09.345Z,100.00
2023-03-03T22:38:10.931Z,100.00
2023-03-03T22:43:14.513Z,100.00
2023-03-03T22:48:16.003Z,100.00
2023-03-03T22:53:18.050Z,100.00
2023-03-03T22:58:20.652Z,100.00
2023-03-03T23:03:22.627Z,100.00
2023-03-03T23:08:24.512Z,100.00
2023-03-03T23:13:27.117Z,100.00
2023-03-03T23:18:29.552Z,100.00
2023-03-03T23:23:31.824Z,100.00
2023-03-03T23:28:33.374Z,100.00
2023-03-03T23:33:35.402Z,100.00
2023-03-03T23:38:36.942Z,100.00
2023-03-03T23:43:38.728Z,100.00
2023-03-03T23:48:40.266Z,100.00
2023-03-03T23:53:41.805Z,100.00
2023-03-03T23:58:43.350Z,100.00
